sensor_id;sensor_type;location;lat;lon;timestamp;pressure;altitude;pressure_sealevel;temperature;humidity
29733;BME280;16643;43.158;25.302;2022-11-15T00:00:40;98799.63;;;8.94;100.00
29733;BME280;16643;43.158;25.302;2022-11-15T00:03:06;98791.84;;;8.92;100.00
29733;BME280;16643;43.158;25.302;2022-11-15T00:05:34;98772.81;;;8.95;100.00
29733;BME280;16643;43.158;25.302;2022-11-15T00:08:01;98778.84;;;8.98;100.00
29733;BME280;16643;43.158;25.302;2022-11-15T00:10:27;98796.81;;;9.10;100.00
29733;BME280;16643;43.158;25.302;2022-11-15T00:12:52;98782.16;;;9.06;100.00
29733;BME280;16643;43.158;25.302;2022-11-15T00:15:18;98782.16;;;9.06;100.00
29733;BME280;16643;43.158;25.302;2022-11-15T00:17:43;98774.44;;;9.03;100.00
29733;BME280;16643;43.158;25.302;2022-11-15T00:20:09;98782.97;;;9.13;100.00
29733;BME280;16643;43.158;25.302;2022-11-15T00:22:35;98773.44;;;9.14;100.00
29733;BME280;16643;43.158;25.302;2022-11-15T00:25:01;98767.56;;;9.02;100.00
29733;BME280;16643;43.158;25.302;2022-11-15T00:27:26;98777.94;;;9.02;100.00
29733;BME280;16643;43.158;25.302;2022-11-15T00:29:52;98788.22;;;9.05;100.00
29733;BME280;16643;43.158;25.302;2022-11-15T00:32:18;98769.19;;;9.08;100.00
29733;BME280;16643;43.158;25.302;2022-11-15T00:34:44;98791.63;;;9.10;100.00
29733;BME280;16643;43.158;25.302;2022-11-15T00:37:09;98777.25;;;8.87;100.00
29733;BME280;16643;43.158;25.302;2022-11-15T00:39:35;98786.88;;;8.79;100.00
29733;BME280;16643;43.158;25.302;2022-11-15T00:42:00;98779.84;;;8.87;100.00
29733;BME280;16643;43.158;25.302;2022-11-15T00:44:26;98766.88;;;8.87;100.00
29733;BME280;16643;43.158;25.302;2022-11-15T00:46:52;98757.41;;;8.84;100.00
29733;BME280;16643;43.158;25.302;2022-11-15T00:49:17;98759.94;;;8.89;100.00
29733;BME280;16643;43.158;25.302;2022-11-15T00:51:43;98796.00;;;9.05;100.00
29733;BME280;16643;43.158;25.302;2022-11-15T00:54:09;98765.84;;;9.01;100.00
29733;BME280;16643;43.158;25.302;2022-11-15T00:56:34;98759.72;;;9.04;100.00
29733;BME280;16643;43.158;25.302;2022-11-15T00:59:00;98777.97;;;8.99;100.00
29733;BME280;16643;43.158;25.302;2022-11-15T01:01:25;98758.25;;;8.86;100.00
29733;BME280;16643;43.158;25.302;2022-11-15T01:03:51;98747.84;;;8.89;100.00
29733;BME280;16643;43.158;25.302;2022-11-15T01:06:17;98760.75;;;8.92;100.00
29733;BME280;16643;43.158;25.302;2022-11-15T01:08:42;98752.09;;;8.92;100.00
29733;BME280;16643;43.158;25.302;2022-11-15T01:11:11;98748.66;;;8.93;100.00
29733;BME280;16643;43.158;25.302;2022-11-15T01:13:37;98746.00;;;8.99;100.00
29733;BME280;16643;43.158;25.302;2022-11-15T01:16:13;98747.72;;;8.98;100.00
29733;BME280;16643;43.158;25.302;2022-11-15T01:18:39;98732.19;;;8.95;100.00
29733;BME280;16643;43.158;25.302;2022-11-15T01:21:10;98737.25;;;9.03;100.00
29733;BME280;16643;43.158;25.302;2022-11-15T01:23:36;98733.03;;;8.97;100.00
29733;BME280;16643;43.158;25.302;2022-11-15T01:26:04;98751.09;;;9.03;100.00
29733;BME280;16643;43.158;25.302;2022-11-15T01:28:32;98741.56;;;9.05;100.00
29733;BME280;16643;43.158;25.302;2022-11-15T01:31:02;98743.44;;;8.96;100.00
29733;BME280;16643;43.158;25.302;2022-11-15T01:33:28;98741.72;;;8.93;100.00
29733;BME280;16643;43.158;25.302;2022-11-15T01:35:54;98750.59;;;8.76;100.00
29733;BME280;16643;43.158;25.302;2022-11-15T01:38:20;98725.84;;;8.53;100.00
29733;BME280;16643;43.158;25.302;2022-11-15T01:40:46;98735.25;;;8.60;100.00
29733;BME280;16643;43.158;25.302;2022-11-15T01:43:25;98741.34;;;8.56;100.00
29733;BME280;16643;43.158;25.302;2022-11-15T01:46:18;98735.34;;;8.53;100.00
29733;BME280;16643;43.158;25.302;2022-11-15T01:48:50;98728.59;;;8.40;100.00
29733;BME280;16643;43.158;25.302;2022-11-15T01:51:17;98736.22;;;8.50;100.00
29733;BME280;16643;43.158;25.302;2022-11-15T01:53:49;98735.34;;;8.53;100.00
29733;BME280;16643;43.158;25.302;2022-11-15T01:56:20;98730.13;;;8.57;100.00
29733;BME280;16643;43.158;25.302;2022-11-15T01:58:48;98720.88;;;8.35;100.00
29733;BME280;16643;43.158;25.302;2022-11-15T02:01:16;98739.00;;;8.30;100.00
29733;BME280;16643;43.158;25.302;2022-11-15T02:04:33;98737.31;;;8.32;100.00
29733;BME280;16643;43.158;25.302;2022-11-15T02:07:03;98737.19;;;8.43;100.00
29733;BME280;16643;43.158;25.302;2022-11-15T02:09:29;98734.50;;;8.51;100.00
29733;BME280;16643;43.158;25.302;2022-11-15T02:11:55;98719.09;;;8.40;100.00
29733;BME280;16643;43.158;25.302;2022-11-15T02:14:22;98738.94;;;8.41;100.00
29733;BME280;16643;43.158;25.302;2022-11-15T02:22:04;98732.06;;;8.35;100.00
29733;BME280;16643;43.158;25.302;2022-11-15T02:32:54;98726.34;;;8.05;100.00
29733;BME280;16643;43.158;25.302;2022-11-15T02:35:44;98722.94;;;7.99;100.00
29733;BME280;16643;43.158;25.302;2022-11-15T02:38:17;98708.31;;;7.95;100.00
29733;BME280;16643;43.158;25.302;2022-11-15T02:40:57;98716.06;;;7.97;100.00
29733;BME280;16643;43.158;25.302;2022-11-15T02:43:33;98723.84;;;7.94;100.00
29733;BME280;16643;43.158;25.302;2022-11-15T02:46:26;98716.97;;;7.93;100.00
29733;BME280;16643;43.158;25.302;2022-11-15T02:49:14;98709.38;;;7.76;100.00
29733;BME280;16643;43.158;25.302;2022-11-15T02:51:41;98703.22;;;7.89;100.00
29733;BME280;16643;43.158;25.302;2022-11-15T02:54:14;98703.22;;;7.89;100.00
29733;BME280;16643;43.158;25.302;2022-11-15T02:56:43;98708.41;;;7.88;100.00
29733;BME280;16643;43.158;25.302;2022-11-15T03:01:46;98716.19;;;7.86;100.00
29733;BME280;16643;43.158;25.302;2022-11-15T03:04:50;98707.69;;;7.68;100.00
29733;BME280;16643;43.158;25.302;2022-11-15T03:07:29;98702.50;;;7.72;100.00
29733;BME280;16643;43.158;25.302;2022-11-15T03:12:28;98712.06;;;7.67;100.00
29733;BME280;16643;43.158;25.302;2022-11-15T03:15:29;98711.19;;;7.67;100.00
29733;BME280;16643;43.158;25.302;2022-11-15T03:18:10;98697.50;;;7.55;100.00
29733;BME280;16643;43.158;25.302;2022-11-15T03:20:38;98709.47;;;7.64;100.00
29733;BME280;16643;43.158;25.302;2022-11-15T03:23:08;98703.44;;;7.65;100.00
29733;BME280;16643;43.158;25.302;2022-11-15T03:25:38;98702.53;;;7.68;100.00
29733;BME280;16643;43.158;25.302;2022-11-15T03:28:08;98712.06;;;7.64;100.00
29733;BME280;16643;43.158;25.302;2022-11-15T03:30:37;98693.09;;;7.62;100.00
29733;BME280;16643;43.158;25.302;2022-11-15T03:33:04;98698.28;;;7.63;100.00
29733;BME280;16643;43.158;25.302;2022-11-15T03:35:35;98698.22;;;7.70;100.00
29733;BME280;16643;43.158;25.302;2022-11-15T03:38:11;98702.50;;;7.74;100.00
29733;BME280;16643;43.158;25.302;2022-11-15T03:40:41;98692.16;;;7.69;100.00
29733;BME280;16643;43.158;25.302;2022-11-15T03:45:51;98678.34;;;7.73;100.00
29733;BME280;16643;43.158;25.302;2022-11-15T03:48:25;98666.19;;;7.80;100.00
29733;BME280;16643;43.158;25.302;2022-11-15T03:50:53;98669.56;;;7.89;100.00
29733;BME280;16643;43.158;25.302;2022-11-15T03:53:19;98662.78;;;7.78;100.00
29733;BME280;16643;43.158;25.302;2022-11-15T03:55:45;98668.72;;;7.86;100.00
29733;BME280;16643;43.158;25.302;2022-11-15T03:58:10;98657.75;;;7.64;100.00
29733;BME280;16643;43.158;25.302;2022-11-15T04:00:36;98666.31;;;7.68;100.00
29733;BME280;16643;43.158;25.302;2022-11-15T04:03:01;98662.19;;;7.50;100.00
29733;BME280;16643;43.158;25.302;2022-11-15T04:05:27;98649.41;;;7.33;100.00
29733;BME280;16643;43.158;25.302;2022-11-15T04:07:52;98670.00;;;7.42;100.00
29733;BME280;16643;43.158;25.302;2022-11-15T04:10:18;98658.84;;;7.36;100.00
29733;BME280;16643;43.158;25.302;2022-11-15T04:12:45;98655.38;;;7.40;100.00
29733;BME280;16643;43.158;25.302;2022-11-15T04:15:17;98648.38;;;7.49;100.00
29733;BME280;16643;43.158;25.302;2022-11-15T04:17:48;98669.91;;;7.56;100.00
29733;BME280;16643;43.158;25.302;2022-11-15T04:20:27;98667.34;;;7.50;100.00
29733;BME280;16643;43.158;25.302;2022-11-15T04:23:22;98652.78;;;7.43;100.00
29733;BME280;16643;43.158;25.302;2022-11-15T04:26:16;98671.72;;;7.43;100.00
29733;BME280;16643;43.158;25.302;2022-11-15T04:28:43;98674.22;;;7.55;100.00
29733;BME280;16643;43.158;25.302;2022-11-15T04:31:28;98655.31;;;7.46;100.00
29733;BME280;16643;43.158;25.302;2022-11-15T04:33:53;98649.25;;;7.48;100.00
29733;BME280;16643;43.158;25.302;2022-11-15T04:36:20;98669.00;;;7.57;100.00
29733;BME280;16643;43.158;25.302;2022-11-15T04:39:05;98663.16;;;7.37;100.00
29733;BME280;16643;43.158;25.302;2022-11-15T04:41:31;98642.63;;;7.21;100.00
29733;BME280;16643;43.158;25.302;2022-11-15T04:43:57;98652.09;;;7.21;100.00
29733;BME280;16643;43.158;25.302;2022-11-15T04:46:23;98634.88;;;7.18;100.00
29733;BME280;16643;43.158;25.302;2022-11-15T04:48:50;98665.88;;;7.21;100.00
29733;BME280;16643;43.158;25.302;2022-11-15T04:51:16;98650.41;;;7.12;100.00
29733;BME280;16643;43.158;25.302;2022-11-15T04:53:41;98644.38;;;7.13;100.00
29733;BME280;16643;43.158;25.302;2022-11-15T04:56:07;98637.41;;;7.23;100.00
29733;BME280;16643;43.158;25.302;2022-11-15T04:58:33;98632.94;;;7.42;100.00
29733;BME280;16643;43.158;25.302;2022-11-15T05:01:13;98641.47;;;7.53;100.00
29733;BME280;16643;43.158;25.302;2022-11-15T05:03:43;98665.63;;;7.49;100.00
29733;BME280;16643;43.158;25.302;2022-11-15T05:06:28;98654.41;;;7.53;100.00
29733;BME280;16643;43.158;25.302;2022-11-15T05:08:54;98641.56;;;7.44;100.00
29733;BME280;16643;43.158;25.302;2022-11-15T05:11:20;98659.38;;;7.71;100.00
29733;BME280;16643;43.158;25.302;2022-11-15T05:13:46;98651.69;;;7.67;100.00
29733;BME280;16643;43.158;25.302;2022-11-15T05:16:12;98650.97;;;7.51;100.00
29733;BME280;16643;43.158;25.302;2022-11-15T05:18:38;98632.84;;;7.52;100.00
29733;BME280;16643;43.158;25.302;2022-11-15T05:21:12;98652.59;;;7.59;100.00
29733;BME280;16643;43.158;25.302;2022-11-15T05:23:38;98649.16;;;7.59;100.00
29733;BME280;16643;43.158;25.302;2022-11-15T05:26:05;98656.97;;;7.54;100.00
29733;BME280;16643;43.158;25.302;2022-11-15T05:28:32;98656.03;;;7.60;100.00
29733;BME280;16643;43.158;25.302;2022-11-15T05:31:02;98649.16;;;7.60;100.00
29733;BME280;16643;43.158;25.302;2022-11-15T05:33:28;98646.47;;;7.70;100.00
29733;BME280;16643;43.158;25.302;2022-11-15T05:35:59;98644.00;;;7.57;100.00
29733;BME280;16643;43.158;25.302;2022-11-15T05:38:26;98662.84;;;7.69;100.00
29733;BME280;16643;43.158;25.302;2022-11-15T05:40:51;98646.53;;;7.67;100.00
29733;BME280;16643;43.158;25.302;2022-11-15T05:43:17;98651.50;;;7.82;100.00
29733;BME280;16643;43.158;25.302;2022-11-15T05:45:43;98653.34;;;7.71;100.00
29733;BME280;16643;43.158;25.302;2022-11-15T05:48:09;98663.69;;;7.74;100.00
29733;BME280;16643;43.158;25.302;2022-11-15T05:50:38;98662.03;;;7.67;100.00
29733;BME280;16643;43.158;25.302;2022-11-15T05:53:06;98649.00;;;7.77;100.00
29733;BME280;16643;43.158;25.302;2022-11-15T05:55:32;98625.75;;;7.71;100.00
29733;BME280;16643;43.158;25.302;2022-11-15T05:57:58;98651.47;;;7.86;100.00
29733;BME280;16643;43.158;25.302;2022-11-15T06:00:24;98658.38;;;7.89;100.00
29733;BME280;16643;43.158;25.302;2022-11-15T06:02:50;98649.69;;;7.91;100.00
29733;BME280;16643;43.158;25.302;2022-11-15T06:05:16;98653.06;;;8.01;100.00
29733;BME280;16643;43.158;25.302;2022-11-15T06:07:41;98666.69;;;8.15;100.00
29733;BME280;16643;43.158;25.302;2022-11-15T06:10:08;98644.34;;;8.08;100.00
29733;BME280;16643;43.158;25.302;2022-11-15T06:12:33;98673.66;;;8.10;100.00
29733;BME280;16643;43.158;25.302;2022-11-15T06:14:59;98653.84;;;8.06;100.00
29733;BME280;16643;43.158;25.302;2022-11-15T06:17:24;98655.72;;;7.90;100.00
29733;BME280;16643;43.158;25.302;2022-11-15T06:19:50;98655.78;;;7.89;100.00
29733;BME280;16643;43.158;25.302;2022-11-15T06:22:16;98652.56;;;7.65;100.00
29733;BME280;16643;43.158;25.302;2022-11-15T06:24:41;98690.38;;;7.79;100.00
29733;BME280;16643;43.158;25.302;2022-11-15T06:27:10;98654.19;;;7.73;100.00
29733;BME280;16643;43.158;25.302;2022-11-15T06:29:36;98677.38;;;7.82;100.00
29733;BME280;16643;43.158;25.302;2022-11-15T06:32:01;98657.63;;;7.76;100.00
29733;BME280;16643;43.158;25.302;2022-11-15T06:34:27;98648.03;;;7.84;100.00
29733;BME280;16643;43.158;25.302;2022-11-15T06:36:53;98649.75;;;7.87;100.00
29733;BME280;16643;43.158;25.302;2022-11-15T06:39:18;98655.91;;;7.74;100.00
29733;BME280;16643;43.158;25.302;2022-11-15T06:41:44;98662.91;;;7.64;100.00
29733;BME280;16643;43.158;25.302;2022-11-15T06:44:09;98663.56;;;7.86;100.00
29733;BME280;16643;43.158;25.302;2022-11-15T06:46:35;98647.19;;;7.82;100.00
29733;BME280;16643;43.158;25.302;2022-11-15T06:49:01;98651.41;;;7.92;100.00
29733;BME280;16643;43.158;25.302;2022-11-15T06:51:26;98650.50;;;7.96;100.00
29733;BME280;16643;43.158;25.302;2022-11-15T06:53:52;98653.81;;;8.11;100.00
29733;BME280;16643;43.158;25.302;2022-11-15T06:56:17;98652.00;;;8.14;100.00
29733;BME280;16643;43.158;25.302;2022-11-15T06:58:43;98651.13;;;8.18;100.00
29733;BME280;16643;43.158;25.302;2022-11-15T07:01:10;98648.69;;;8.03;100.00
29733;BME280;16643;43.158;25.302;2022-11-15T07:03:37;98654.69;;;8.08;100.00
29733;BME280;16643;43.158;25.302;2022-11-15T07:06:04;98646.84;;;8.14;100.00
29733;BME280;16643;43.158;25.302;2022-11-15T07:08:30;98655.31;;;8.31;100.00
29733;BME280;16643;43.158;25.302;2022-11-15T07:11:00;98645.78;;;8.35;100.00
29733;BME280;16643;43.158;25.302;2022-11-15T07:13:28;98649.16;;;8.40;100.00
29733;BME280;16643;43.158;25.302;2022-11-15T07:15:54;98640.59;;;8.35;100.00
29733;BME280;16643;43.158;25.302;2022-11-15T07:18:20;98646.66;;;8.29;100.00
29733;BME280;16643;43.158;25.302;2022-11-15T07:20:46;98657.88;;;8.33;100.00
29733;BME280;16643;43.158;25.302;2022-11-15T07:23:11;98650.16;;;8.25;100.00
29733;BME280;16643;43.158;25.302;2022-11-15T07:25:37;98649.25;;;8.32;100.00
29733;BME280;16643;43.158;25.302;2022-11-15T07:28:03;98647.53;;;8.30;100.00
29733;BME280;16643;43.158;25.302;2022-11-15T07:30:29;98639.84;;;8.22;100.00
29733;BME280;16643;43.158;25.302;2022-11-15T07:32:56;98652.72;;;8.31;100.00
29733;BME280;16643;43.158;25.302;2022-11-15T07:35:22;98636.41;;;8.23;100.00
29733;BME280;16643;43.158;25.302;2022-11-15T07:37:59;98637.25;;;8.24;100.00
29733;BME280;16643;43.158;25.302;2022-11-15T07:40:27;98638.13;;;8.23;100.00
29733;BME280;16643;43.158;25.302;2022-11-15T07:42:59;98638.88;;;8.31;100.00
29733;BME280;16643;43.158;25.302;2022-11-15T07:45:25;98643.81;;;8.51;100.00
29733;BME280;16643;43.158;25.302;2022-11-15T07:47:54;98632.69;;;8.46;100.00
29733;BME280;16643;43.158;25.302;2022-11-15T07:50:25;98637.16;;;8.34;100.00
29733;BME280;16643;43.158;25.302;2022-11-15T07:52:55;98640.72;;;8.23;100.00
29733;BME280;16643;43.158;25.302;2022-11-15T07:55:22;98635.53;;;8.23;100.00
29733;BME280;16643;43.158;25.302;2022-11-15T07:57:48;98626.00;;;8.25;100.00
29733;BME280;16643;43.158;25.302;2022-11-15T08:00:14;98637.16;;;8.33;100.00
29733;BME280;16643;43.158;25.302;2022-11-15T08:02:40;98631.16;;;8.25;100.00
29733;BME280;16643;43.158;25.302;2022-11-15T08:05:06;98622.53;;;8.26;100.00
29733;BME280;16643;43.158;25.302;2022-11-15T08:07:31;98638.06;;;8.26;100.00
29733;BME280;16643;43.158;25.302;2022-11-15T08:09:57;98627.81;;;8.18;100.00
29733;BME280;16643;43.158;25.302;2022-11-15T08:12:24;98628.69;;;8.17;100.00
29733;BME280;16643;43.158;25.302;2022-11-15T08:14:50;98636.41;;;8.20;100.00
29733;BME280;16643;43.158;25.302;2022-11-15T08:17:15;98622.72;;;8.11;100.00
29733;BME280;16643;43.158;25.302;2022-11-15T08:19:41;98619.91;;;8.29;100.00
29733;BME280;16643;43.158;25.302;2022-11-15T08:22:07;98623.28;;;8.37;100.00
29733;BME280;16643;43.158;25.302;2022-11-15T08:24:32;98616.38;;;8.36;100.00
29733;BME280;16643;43.158;25.302;2022-11-15T08:26:59;98608.81;;;8.19;100.00
29733;BME280;16643;43.158;25.302;2022-11-15T08:29:25;98619.94;;;8.26;100.00
29733;BME280;16643;43.158;25.302;2022-11-15T08:31:51;98613.16;;;8.16;100.00
29733;BME280;16643;43.158;25.302;2022-11-15T08:34:19;98595.25;;;8.00;100.00
29733;BME280;16643;43.158;25.302;2022-11-15T08:36:45;98610.81;;;7.96;100.00
29733;BME280;16643;43.158;25.302;2022-11-15T08:39:11;98613.13;;;8.19;100.00
29733;BME280;16643;43.158;25.302;2022-11-15T08:41:38;98628.56;;;8.25;100.00
29733;BME280;16643;43.158;25.302;2022-11-15T08:44:04;98605.34;;;8.22;100.00
29733;BME280;16643;43.158;25.302;2022-11-15T08:46:30;98611.28;;;8.27;100.00
29733;BME280;16643;43.158;25.302;2022-11-15T08:48:57;98624.31;;;8.24;100.00
29733;BME280;16643;43.158;25.302;2022-11-15T08:51:22;98599.31;;;8.21;100.00
29733;BME280;16643;43.158;25.302;2022-11-15T08:53:48;98595.06;;;8.14;100.00
29733;BME280;16643;43.158;25.302;2022-11-15T08:56:14;98590.81;;;8.09;100.00
29733;BME280;16643;43.158;25.302;2022-11-15T08:58:40;98595.19;;;8.05;100.00
29733;BME280;16643;43.158;25.302;2022-11-15T09:01:15;98617.47;;;8.17;100.00
29733;BME280;16643;43.158;25.302;2022-11-15T09:03:41;98582.81;;;8.25;100.00
29733;BME280;16643;43.158;25.302;2022-11-15T09:06:07;98575.06;;;8.25;100.00
29733;BME280;16643;43.158;25.302;2022-11-15T09:08:32;98586.22;;;8.33;100.00
29733;BME280;16643;43.158;25.302;2022-11-15T09:10:58;98592.22;;;8.35;100.00
29733;BME280;16643;43.158;25.302;2022-11-15T09:13:23;98573.00;;;8.52;100.00
29733;BME280;16643;43.158;25.302;2022-11-15T09:15:49;98589.22;;;8.64;100.00
29733;BME280;16643;43.158;25.302;2022-11-15T09:18:15;98577.16;;;8.62;100.00
29733;BME280;16643;43.158;25.302;2022-11-15T09:20:40;98547.81;;;8.61;100.00
29733;BME280;16643;43.158;25.302;2022-11-15T09:23:06;98548.78;;;8.56;100.00
29733;BME280;16643;43.158;25.302;2022-11-15T09:25:32;98568.50;;;8.66;100.00
29733;BME280;16643;43.158;25.302;2022-11-15T09:27:58;98554.50;;;8.76;100.00
29733;BME280;16643;43.158;25.302;2022-11-15T09:30:24;98563.47;;;8.55;100.00
29733;BME280;16643;43.158;25.302;2022-11-15T09:32:50;98538.31;;;8.60;100.00
29733;BME280;16643;43.158;25.302;2022-11-15T09:35:16;98543.44;;;8.66;100.00
29733;BME280;16643;43.158;25.302;2022-11-15T09:37:42;98553.78;;;8.66;100.00
29733;BME280;16643;43.158;25.302;2022-11-15T09:40:15;98546.72;;;8.76;100.00
29733;BME280;16643;43.158;25.302;2022-11-15T09:45:32;98537.97;;;8.83;100.00
29733;BME280;16643;43.158;25.302;2022-11-15T09:50:47;98530.22;;;8.82;100.00
29733;BME280;16643;43.158;25.302;2022-11-15T09:53:25;98515.69;;;8.71;100.00
29733;BME280;16643;43.158;25.302;2022-11-15T09:56:02;98521.50;;;8.86;100.00
29733;BME280;16643;43.158;25.302;2022-11-15T10:04:14;98502.34;;;8.44;100.00
29733;BME280;16643;43.158;25.302;2022-11-15T10:06:50;98516.69;;;8.63;100.00
29733;BME280;16643;43.158;25.302;2022-11-15T10:09:23;98467.91;;;8.35;100.00
29733;BME280;16643;43.158;25.302;2022-11-15T10:11:51;98470.38;;;8.45;100.00
29733;BME280;16643;43.158;25.302;2022-11-15T10:14:22;98476.44;;;8.44;100.00
29733;BME280;16643;43.158;25.302;2022-11-15T10:22:31;98485.59;;;8.64;100.00
29733;BME280;16643;43.158;25.302;2022-11-15T10:25:12;98479.50;;;8.68;100.00
29733;BME280;16643;43.158;25.302;2022-11-15T10:27:40;98470.03;;;8.64;100.00
29733;BME280;16643;43.158;25.302;2022-11-15T10:30:15;98476.63;;;8.84;100.00
29733;BME280;16643;43.158;25.302;2022-11-15T10:32:43;98481.81;;;8.84;100.00
29733;BME280;16643;43.158;25.302;2022-11-15T10:35:29;98471.22;;;8.96;100.00
29733;BME280;16643;43.158;25.302;2022-11-15T10:38:09;98459.13;;;8.96;100.00
29733;BME280;16643;43.158;25.302;2022-11-15T10:40:37;98464.25;;;8.99;100.00
29733;BME280;16643;43.158;25.302;2022-11-15T10:45:34;98436.97;;;8.80;100.00
29733;BME280;16643;43.158;25.302;2022-11-15T10:48:20;98461.78;;;8.92;100.00
29733;BME280;16643;43.158;25.302;2022-11-15T10:50:48;98448.25;;;8.76;100.00
29733;BME280;16643;43.158;25.302;2022-11-15T10:55:50;98437.38;;;8.56;100.00
29733;BME280;16643;43.158;25.302;2022-11-15T10:58:38;98459.53;;;8.72;100.00
29733;BME280;16643;43.158;25.302;2022-11-15T11:01:11;98457.59;;;8.85;100.00
29733;BME280;16643;43.158;25.302;2022-11-15T11:03:39;98453.38;;;8.79;100.00
29733;BME280;16643;43.158;25.302;2022-11-15T11:06:12;98456.66;;;8.90;100.00
29733;BME280;16643;43.158;25.302;2022-11-15T11:08:38;98450.53;;;8.93;100.00
29733;BME280;16643;43.158;25.302;2022-11-15T11:11:05;98449.44;;;9.06;100.00
29733;BME280;16643;43.158;25.302;2022-11-15T11:13:33;98442.69;;;8.97;100.00
29733;BME280;16643;43.158;25.302;2022-11-15T11:24:46;98436.78;;;8.89;100.00
29733;BME280;16643;43.158;25.302;2022-11-15T11:30:23;98425.84;;;8.73;100.00
29733;BME280;16643;43.158;25.302;2022-11-15T11:35:49;98416.59;;;8.59;100.00
29733;BME280;16643;43.158;25.302;2022-11-15T11:41:14;98409.09;;;8.44;100.00
29733;BME280;16643;43.158;25.302;2022-11-15T11:52:31;98395.13;;;8.52;100.00
29733;BME280;16643;43.158;25.302;2022-11-15T11:55:23;98371.59;;;8.64;100.00
29733;BME280;16643;43.158;25.302;2022-11-15T11:58:26;98386.91;;;8.77;100.00
29733;BME280;16643;43.158;25.302;2022-11-15T12:00:57;98373.41;;;8.58;100.00
29733;BME280;16643;43.158;25.302;2022-11-15T12:03:31;98366.63;;;8.52;100.00
29733;BME280;16643;43.158;25.302;2022-11-15T12:06:05;98370.91;;;8.55;100.00
29733;BME280;16643;43.158;25.302;2022-11-15T12:08:50;98340.91;;;8.43;100.00
29733;BME280;16643;43.158;25.302;2022-11-15T12:11:26;98360.63;;;8.49;100.00
29733;BME280;16643;43.158;25.302;2022-11-15T12:14:01;98348.69;;;8.42;100.00
29733;BME280;16643;43.158;25.302;2022-11-15T12:16:30;98364.66;;;8.66;100.00
29733;BME280;16643;43.158;25.302;2022-11-15T12:19:01;98369.19;;;8.54;100.00
29733;BME280;16643;43.158;25.302;2022-11-15T12:21:45;98348.31;;;8.61;100.00
29733;BME280;16643;43.158;25.302;2022-11-15T12:24:18;98358.47;;;8.72;100.00
29733;BME280;16643;43.158;25.302;2022-11-15T12:27:13;98343.97;;;8.63;100.00
29733;BME280;16643;43.158;25.302;2022-11-15T12:29:48;98355.97;;;8.69;100.00
29733;BME280;16643;43.158;25.302;2022-11-15T12:32:37;98344.03;;;8.60;100.00
29733;BME280;16643;43.158;25.302;2022-11-15T12:35:06;98334.41;;;8.67;100.00
29733;BME280;16643;43.158;25.302;2022-11-15T12:37:48;98338.59;;;8.74;100.00
29733;BME280;16643;43.158;25.302;2022-11-15T12:40:21;98340.31;;;8.73;100.00
29733;BME280;16643;43.158;25.302;2022-11-15T12:58:59;98324.72;;;8.77;100.00
29733;BME280;16643;43.158;25.302;2022-11-15T13:06:45;98298.16;;;8.65;100.00
29733;BME280;16643;43.158;25.302;2022-11-15T13:14:58;98308.81;;;8.50;100.00
29733;BME280;16643;43.158;25.302;2022-11-15T13:17:37;98293.03;;;8.62;100.00
29733;BME280;16643;43.158;25.302;2022-11-15T13:22:46;98304.88;;;8.76;100.00
29733;BME280;16643;43.158;25.302;2022-11-15T13:27:57;98300.78;;;8.64;100.00
29733;BME280;16643;43.158;25.302;2022-11-15T13:30:30;98299.75;;;8.71;100.00
29733;BME280;16643;43.158;25.302;2022-11-15T13:33:05;98281.31;;;8.43;100.00
29733;BME280;16643;43.158;25.302;2022-11-15T13:35:34;98297.06;;;8.31;100.00
29733;BME280;16643;43.158;25.302;2022-11-15T13:38:04;98290.69;;;8.49;100.00
29733;BME280;16643;43.158;25.302;2022-11-15T13:40:37;98283.00;;;8.46;100.00
29733;BME280;16643;43.158;25.302;2022-11-15T13:48:35;98263.81;;;8.56;100.00
29733;BME280;16643;43.158;25.302;2022-11-15T13:51:08;98275.69;;;8.66;100.00
29733;BME280;16643;43.158;25.302;2022-11-15T13:53:40;98274.94;;;8.61;100.00
29733;BME280;16643;43.158;25.302;2022-11-15T13:56:07;98241.88;;;8.27;100.00
29733;BME280;16643;43.158;25.302;2022-11-15T13:58:33;98257.91;;;8.48;100.00
29733;BME280;16643;43.158;25.302;2022-11-15T14:01:02;98265.59;;;8.52;100.00
29733;BME280;16643;43.158;25.302;2022-11-15T14:03:34;98250.34;;;8.37;100.00
29733;BME280;16643;43.158;25.302;2022-11-15T14:06:04;98262.28;;;8.46;100.00
29733;BME280;16643;43.158;25.302;2022-11-15T14:08:32;98253.06;;;8.29;100.00
29733;BME280;16643;43.158;25.302;2022-11-15T14:11:09;98259.84;;;8.36;100.00
29733;BME280;16643;43.158;25.302;2022-11-15T14:13:38;98235.75;;;8.34;100.00
29733;BME280;16643;43.158;25.302;2022-11-15T14:16:19;98258.69;;;8.53;100.00
29733;BME280;16643;43.158;25.302;2022-11-15T14:18:54;98254.38;;;8.52;100.00
29733;BME280;16643;43.158;25.302;2022-11-15T14:21:20;98248.56;;;8.41;100.00
29733;BME280;16643;43.158;25.302;2022-11-15T14:23:45;98246.00;;;8.39;100.00
29733;BME280;16643;43.158;25.302;2022-11-15T14:26:27;98263.03;;;8.51;100.00
29733;BME280;16643;43.158;25.302;2022-11-15T14:28:53;98248.38;;;8.50;100.00
29733;BME280;16643;43.158;25.302;2022-11-15T14:31:19;98257.16;;;8.43;100.00
29733;BME280;16643;43.158;25.302;2022-11-15T14:33:45;98256.50;;;8.30;100.00
29733;BME280;16643;43.158;25.302;2022-11-15T14:36:16;98246.00;;;8.39;100.00
29733;BME280;16643;43.158;25.302;2022-11-15T14:38:42;98247.50;;;8.51;100.00
29733;BME280;16643;43.158;25.302;2022-11-15T14:41:22;98239.03;;;8.43;100.00
29733;BME280;16643;43.158;25.302;2022-11-15T14:43:49;98237.91;;;8.56;100.00
29733;BME280;16643;43.158;25.302;2022-11-15T14:46:15;98244.50;;;8.70;100.00
29733;BME280;16643;43.158;25.302;2022-11-15T14:48:41;98238.69;;;8.59;100.00
29733;BME280;16643;43.158;25.302;2022-11-15T14:51:15;98233.50;;;8.59;100.00